Sunday, January 20, 2019, 2:44 AM EST
Back to Local

KHPN, White Plains Westchester

Location: Greenwich, NY, United States Lat: 41.067
Local Time: 2:44 AM EST ( 7:44 GMT) Lon: -73.7
Time Zone: US/Eastern Elev: 439 ft

Show me the last for .
Show Coded

Time T Td Feel RH Dir Speed Gust Alt SLP Vis Weather Sky Remarks
2019-01-20 01:56 33 31 21 91 70° 15 22 29.72 29.75 3 RA BR OVC005 1-hr Precip Total: 0.18"
2019-01-20 00:56 33 31 22 91 90° 10 17 29.79 29.81 3 -RA BR OVC005 1-hr Precip Total: 0.21"
6-hr Precip Total (1am): 0.42"
6-hr Min Temp (1am): 30.9°F
6-hr Max Temp (1am): 34.0°F
2019-01-19 23:56 32 30 19 92 80° 13 25 29.83 29.85 3 -FZRA BR OVC005 Pressure falling rapidly
1-hr Precip Total: 0.11"
24-hr Min Temp (12am): 24.1°F
24-hr Max Temp (12am): 34.0°F
2019-01-19 22:56 32 30 24 92 80° 10 - 29.88 29.90 3 -FZRASNPL BR OVC005 1-hr Precip Total: 0.07"
2019-01-19 22:46 32 30 19 92 80° 12 23 29.89 - 0 -FZRASNPL VV004 1-hr Precip Total: 0.06"
2019-01-19 21:56 32 31 19 95 90° 13 24 29.92 29.94 0 -SN BR VV004 Pressure falling rapidly
1-hr Precip Total: 0.02"
6-hr Precip Total (10pm): 0.03"
2019-01-19 21:20 33 31 21 91 90° 17 23 29.96 - 0 -SN BR VV004 Pressure falling rapidly
1-hr Precip Total: 0.01"
2019-01-19 20:56 33 31 24 91 100° 13 - 30.00 30.02 1 -SN BR OVC006 1-hr Precip Total: 0.01"
2019-01-19 19:56 34 30 22 85 110° 10 23 30.01 30.04 2 -SN BR BKN012 OVC017 1-hr Precip Total: Trace
2019-01-19 18:56 34 27 27 75 110° 9 - 30.08 30.10 10 OVC022 1-hr Precip Total: Trace
6-hr Precip Total (7pm): 0.00"
6-hr Min Temp (7pm): 33.1°F
6-hr Max Temp (7pm): 34.0°F
2019-01-19 17:56 33 23 28 66 100° 6 - 30.10 30.12 10 OVC026 None
2019-01-19 16:56 33 23 26 66 90° 8 - 30.09 30.12 10 OVC029 None
2019-01-19 15:56 33 22 26 63 80° 8 - 30.13 30.16 10 OVC032 None
2019-01-19 14:56 33 22 26 63 110° 8 - 30.16 30.18 10 OVC037 None
2019-01-19 13:56 34 20 28 55 110° 7 - 30.16 30.18 10 FEW010 BKN036 OVC045 None
2019-01-19 12:56 34 17 27 49 100° 9 - 30.17 30.19 10 OVC040 Pressure falling rapidly
6-hr Min Temp (1pm): 24.1°F
6-hr Max Temp (1pm): 34.0°F
2019-01-19 11:56 34 19 27 53 80° 8 - 30.22 30.24 10 BKN039 None
2019-01-19 10:56 33 20 27 58 80° 7 - 30.25 30.27 10 SCT042 None
2019-01-19 09:56 32 22 27 65 100° 5 - 30.25 30.27 10 BKN043 None
2019-01-19 08:56 31 21 26 66 50° 5 - 30.23 30.26 10 BKN043 None
2019-01-19 07:56 28 20 23 71 10° 5 - 30.20 30.23 10 CLR None
2019-01-19 06:56 25 19 19 77 320° 5 - 30.19 30.22 10 CLR 6-hr Min Temp (7am): 24.1°F
6-hr Max Temp (7am): 28.9°F
2019-01-19 05:56 25 19 19 77 310° 5 - 30.20 30.22 10 CLR None
2019-01-19 04:56 25 18 19 74 320° 5 - 30.17 30.20 10 CLR None
2019-01-19 03:56 28 21 24 74 300° 3 - 30.18 30.20 10 FEW050 None
2019-01-19 02:56 28 21 22 74 290° 6 - 30.18 30.21 10 FEW050 None

Support USWX by starting your Amazon purchase here.